Sy Capt. Cook — DJ4343 — position and weather

sailwx.info

Track history (hours):
 
Tides and Currents Weather Stations Pressure Air Temp Water Temp Dewpoint Dewpoint Depression Visibility Wind Speed Wind Dir Waves Ship Positions

Sy Capt. Cook

Last reported at 2018-Apr-21 18:27 UTC. Time now 2018-May-22 17:33 UTC.
Position N 36°57' W 024°06'.
Warning: this ship's position is 30 days out of date.

Length 13 m.

Type: Sailing vessel. MMSI: 211508500.

Date/timePositionNaut miles runAvg speedWind from/ knotsBaromVisibWave heightAir tempDewpointWater temp
2018-Apr-21 18:27N 36°57' W 024°06'4 7.5
2018-Apr-21 17:58N 36°57' W 024°11'3 7.3
2018-Apr-21 17:30N 36°57' W 024°15'4 7.2
2018-Apr-21 16:59N 36°56' W 024°19'3 7.2
2018-Apr-21 16:30N 36°56' W 024°24'4 7.1
2018-Apr-21 16:00N 36°56' W 024°28'4 7.2
2018-Apr-21 15:30N 36°56' W 024°33'4 7.1
2018-Apr-21 15:00N 36°56' W 024°37'4 7.1
2018-Apr-21 14:30N 36°56' W 024°42'4 7.1
2018-Apr-21 14:00N 36°56' W 024°46'3 7.1
2018-Apr-21 13:30N 36°55' W 024°50'3 6.7
2018-Apr-21 13:00N 36°55' W 024°55'3 5.5
2018-Apr-21 12:30N 36°55' W 024°58'2 4.9
2018-Apr-21 12:00N 36°55' W 025°01'3 5.5
2018-Apr-21 11:30N 36°55' W 025°05'3 5.2
2018-Apr-21 11:00N 36°56' W 025°08'1 1.9
2018-Apr-21 10:29N 36°57' W 025°09'0 0.3
2018-Apr-21 09:59N 36°57' W 025°09'0 0.0
2018-Apr-21 09:29N 36°57' W 025°09'0 0.0
2018-Apr-21 08:58N 36°57' W 025°09'0 0.0
2018-Apr-21 08:29N 36°57' W 025°09'0 0.0
2018-Apr-21 07:59N 36°57' W 025°09'0 0.0
2018-Apr-21 07:28N 36°57' W 025°09'0 0.0
2018-Apr-21 06:59N 36°57' W 025°09'0 0.0
2018-Apr-21 06:29N 36°57' W 025°09'0 0.0
2018-Apr-21 05:59N 36°57' W 025°09'0 0.0
2018-Apr-21 05:29N 36°57' W 025°09'0 0.0
2018-Apr-21 04:59N 36°57' W 025°09'0 0.0
2018-Apr-21 04:28N 36°57' W 025°09'0 0.0
2018-Apr-21 03:59N 36°57' W 025°09'0 0.0
2018-Apr-21 03:29N 36°57' W 025°09'0 0.0
2018-Apr-21 02:59N 36°57' W 025°09'0 0.0
2018-Apr-21 02:29N 36°57' W 025°09'0 0.0
2018-Apr-21 01:59N 36°57' W 025°09'0 0.0
2018-Apr-21 01:29N 36°57' W 025°09'0 0.0
2018-Apr-21 00:59N 36°57' W 025°09'0 0.0
2018-Apr-21 00:29N 36°57' W 025°09'0 0.0
2018-Apr-20 23:59N 36°57' W 025°09'0 0.0
2018-Apr-20 23:29N 36°57' W 025°09'0 0.0
2018-Apr-20 22:58N 36°57' W 025°09'0 0.0
2018-Apr-20 22:29N 36°57' W 025°09'0 0.0
2018-Apr-20 21:59N 36°57' W 025°09'0 0.0
2018-Apr-20 21:26N 36°57' W 025°09'0 0.0
2018-Apr-20 20:59N 36°57' W 025°09'0 0.0
2018-Apr-20 20:29N 36°57' W 025°09'0 0.0
2018-Apr-20 19:59N 36°57' W 025°09'0 0.0
2018-Apr-20 19:29N 36°57' W 025°09'0 0.0
2018-Apr-20 18:59N 36°57' W 025°09'0 0.0
2018-Apr-20 18:29N 36°57' W 025°09'0 0.0
2018-Apr-20 17:59N 36°57' W 025°09'0 0.0
2018-Apr-20 17:29N 36°57' W 025°09'0 0.0
2018-Apr-20 16:59N 36°57' W 025°09'0 0.0
2018-Apr-20 16:29N 36°57' W 025°09'0 0.0
2018-Apr-20 15:59N 36°57' W 025°09'0 0.0
2018-Apr-20 15:29N 36°57' W 025°09'0 0.0
2018-Apr-20 14:59N 36°57' W 025°09'0 0.0
2018-Apr-20 14:29N 36°57' W 025°09'0 0.0
2018-Apr-20 13:59N 36°57' W 025°09'0 0.0
2018-Apr-20 13:29N 36°57' W 025°09'0 0.0
2018-Apr-20 12:59N 36°57' W 025°09'0 0.0
2018-Apr-20 12:29N 36°57' W 025°09'0 0.0
2018-Apr-20 11:59N 36°57' W 025°09'0 0.0
2018-Apr-20 11:29N 36°57' W 025°09'0 0.0
2018-Apr-20 10:59N 36°57' W 025°09'0 0.0
2018-Apr-20 10:29N 36°57' W 025°09'0 0.0
2018-Apr-20 09:59N 36°57' W 025°09'0 0.0
2018-Apr-20 09:29N 36°57' W 025°09'0 0.0
2018-Apr-20 08:59N 36°57' W 025°09'0 0.0
2018-Apr-20 08:29N 36°57' W 025°09'0 0.0
2018-Apr-20 07:59N 36°57' W 025°09'0 0.0
2018-Apr-20 07:29N 36°57' W 025°09'0 0.0
2018-Apr-20 06:59N 36°57' W 025°09'0 0.0
2018-Apr-20 06:29N 36°57' W 025°09'0 0.0
2018-Apr-20 05:59N 36°57' W 025°09'0 0.0
2018-Apr-20 05:29N 36°57' W 025°09'0 0.0
2018-Apr-20 04:59N 36°57' W 025°09'0 0.0
2018-Apr-20 04:29N 36°57' W 025°09'0 0.0
2018-Apr-20 03:59N 36°57' W 025°09'0 0.0
2018-Apr-20 03:29N 36°57' W 025°09'0 0.0
2018-Apr-20 02:59N 36°57' W 025°09'0 0.0
2018-Apr-20 02:29N 36°57' W 025°09'0 0.0
2018-Apr-20 01:59N 36°57' W 025°09'0 0.0
2018-Apr-20 01:29N 36°57' W 025°09'0 0.0
2018-Apr-20 00:59N 36°57' W 025°09'0 0.0
2018-Apr-20 00:29N 36°57' W 025°09'0 0.0
2018-Apr-19 23:59N 36°57' W 025°09'0 0.0
2018-Apr-19 23:29N 36°57' W 025°09'0 0.0
2018-Apr-19 22:59N 36°57' W 025°09'0 0.0
2018-Apr-19 22:29N 36°57' W 025°09'0 0.0
2018-Apr-19 21:59N 36°57' W 025°09'0 0.0
2018-Apr-19 21:29N 36°57' W 025°09'0 0.0
2018-Apr-19 20:59N 36°57' W 025°09'0 0.0
2018-Apr-19 20:29N 36°57' W 025°09'0 0.0
2018-Apr-19 19:59N 36°57' W 025°09'0 0.0
2018-Apr-19 19:29N 36°57' W 025°09'0 0.0
2018-Apr-19 18:59N 36°57' W 025°09'0 0.0
2018-Apr-19 18:29N 36°57' W 025°09'0 0.0
2018-Apr-19 17:59N 36°57' W 025°09'0 0.0
2018-Apr-19 17:29N 36°57' W 025°09'0 0.0
2018-Apr-19 16:59N 36°57' W 025°09'0 0.0
2018-Apr-19 16:29N 36°57' W 025°09'0 0.0
2018-Apr-19 15:59N 36°57' W 025°09'0 0.0
2018-Apr-19 15:29N 36°57' W 025°09'0 0.0
2018-Apr-19 14:59N 36°57' W 025°09'0 0.0
2018-Apr-19 14:29N 36°57' W 025°09'0 0.0
2018-Apr-19 13:59N 36°57' W 025°09'0 0.0
2018-Apr-19 13:29N 36°57' W 025°09'0 0.0
2018-Apr-19 12:59N 36°57' W 025°09'0 0.0
2018-Apr-19 12:29N 36°57' W 025°09'0 0.0
2018-Apr-19 11:59N 36°57' W 025°09'0 0.0
2018-Apr-19 11:29N 36°57' W 025°09'0 0.0
2018-Apr-19 10:59N 36°57' W 025°09'0 0.0
2018-Apr-19 10:26N 36°57' W 025°09'0 0.0
2018-Apr-19 09:59N 36°57' W 025°09'0 0.0
2018-Apr-19 09:29N 36°57' W 025°09'0 0.0
2018-Apr-19 08:59N 36°57' W 025°09'0 0.0
2018-Apr-19 08:29N 36°57' W 025°09'0 0.0
2018-Apr-19 07:59N 36°57' W 025°09'0 0.0
2018-Apr-19 07:29N 36°57' W 025°09'0 0.0
2018-Apr-19 06:59N 36°57' W 025°09'0 0.0
2018-Apr-19 06:29N 36°57' W 025°09'0 0.0
2018-Apr-19 05:59N 36°57' W 025°09'0 0.0
2018-Apr-19 05:29N 36°57' W 025°09'0 0.0
2018-Apr-19 04:59N 36°57' W 025°09'0 0.0
2018-Apr-19 04:29N 36°57' W 025°09'0 0.0
2018-Apr-19 03:59N 36°57' W 025°09'0 0.0
2018-Apr-19 03:29N 36°57' W 025°09'0 0.0
2018-Apr-19 02:59N 36°57' W 025°09'0 0.0
2018-Apr-19 02:29N 36°57' W 025°09'0 0.0
2018-Apr-19 01:59N 36°57' W 025°09'0 0.0
2018-Apr-19 01:29N 36°57' W 025°09'0 0.0
2018-Apr-19 00:59N 36°57' W 025°09'0 0.0
2018-Apr-19 00:29N 36°57' W 025°09'0 0.0
2018-Apr-18 23:59N 36°57' W 025°09'0 0.0
2018-Apr-18 23:29N 36°57' W 025°09'0 0.0
2018-Apr-18 22:59N 36°57' W 025°09'0 0.0
2018-Apr-18 22:29N 36°57' W 025°09'0 0.0
2018-Apr-18 21:59N 36°57' W 025°09'0 0.0
2018-Apr-18 21:29N 36°57' W 025°09'0 0.0
2018-Apr-18 21:00N 36°57' W 025°09'0 0.0
2018-Apr-18 20:28N 36°57' W 025°09'0 0.0
2018-Apr-18 20:00N 36°57' W 025°09'0 0.0
2018-Apr-18 19:28N 36°57' W 025°09'0 0.0
2018-Apr-18 18:57N 36°57' W 025°09'0 0.0
2018-Apr-18 18:28N 36°57' W 025°09'0 0.0
2018-Apr-18 17:58N 36°57' W 025°09'0 0.0
2018-Apr-18 17:31N 36°57' W 025°09'0 0.0
2018-Apr-18 16:58N 36°57' W 025°09'0 0.0
2018-Apr-18 16:28N 36°57' W 025°09'0 0.0
2018-Apr-18 15:58N 36°57' W 025°09'0 0.0
2018-Apr-18 15:31N 36°57' W 025°09'0 0.0
2018-Apr-18 15:01N 36°57' W 025°09'0 0.0
2018-Apr-18 14:28N 36°57' W 025°09'0 0.0
2018-Apr-18 13:58N 36°57' W 025°09'0 0.0
2018-Apr-18 13:28N 36°57' W 025°09'0 0.0
2018-Apr-18 12:58N 36°57' W 025°09'0 0.0
2018-Apr-18 12:28N 36°57' W 025°09'0 0.0
2018-Apr-18 11:58N 36°57' W 025°09'0 0.0
2018-Apr-18 11:28N 36°57' W 025°09'0 0.0
2018-Apr-18 10:58N 36°57' W 025°09'0 0.0
2018-Apr-18 10:28N 36°57' W 025°09'0 0.0
2018-Apr-18 09:58N 36°57' W 025°09'0 0.0
2018-Apr-18 09:28N 36°57' W 025°09'0 0.0
2018-Apr-18 08:58N 36°57' W 025°09'0 0.0
2018-Apr-18 08:28N 36°57' W 025°09'0 0.0
2018-Apr-18 07:58N 36°57' W 025°09'0 0.0
2018-Apr-18 07:28N 36°57' W 025°09'0 0.0
2018-Apr-18 06:58N 36°57' W 025°09'0 0.0
2018-Apr-18 06:28N 36°57' W 025°09'0 0.0
2018-Apr-18 05:58N 36°57' W 025°09'0 0.0
2018-Apr-18 05:28N 36°57' W 025°09'0 0.0
2018-Apr-18 04:58N 36°57' W 025°09'0 0.0
2018-Apr-18 04:28N 36°57' W 025°09'0 0.0
2018-Apr-18 03:58N 36°57' W 025°09'0 0.0
2018-Apr-18 03:28N 36°57' W 025°09'0 0.0
2018-Apr-18 02:58N 36°57' W 025°09'0 0.0
2018-Apr-18 02:28N 36°57' W 025°09'0 0.0
2018-Apr-18 01:58N 36°57' W 025°09'0 0.0
2018-Apr-18 01:28N 36°57' W 025°09'0 0.0
2018-Apr-18 00:58N 36°57' W 025°09'0 0.0
2018-Apr-18 00:28N 36°57' W 025°09'0 0.0
2018-Apr-17 23:58N 36°57' W 025°09'0 0.0
2018-Apr-17 23:28N 36°57' W 025°09'0 0.0
2018-Apr-17 22:58N 36°57' W 025°09'0 0.0
2018-Apr-17 22:28N 36°57' W 025°09'0 0.0
2018-Apr-17 21:58N 36°57' W 025°09'0 0.0
2018-Apr-17 21:28N 36°57' W 025°09'0 0.0
2018-Apr-17 20:58N 36°57' W 025°09'0 0.0
2018-Apr-17 20:28N 36°57' W 025°09'0 0.0
2018-Apr-17 19:58N 36°57' W 025°09'0 0.0
2018-Apr-17 19:28N 36°57' W 025°09'0 0.0
2018-Apr-17 18:58N 36°57' W 025°09'0 0.0
2018-Apr-17 18:28N 36°57' W 025°09'0 0.0
2018-Apr-17 17:58N 36°57' W 025°09'0 0.0
2018-Apr-17 17:28N 36°57' W 025°09'0 0.0
2018-Apr-17 16:58N 36°57' W 025°09'0 0.0
2018-Apr-17 16:28N 36°57' W 025°09'0 0.0
2018-Apr-17 15:58N 36°57' W 025°09'0 0.0
2018-Apr-17 15:28N 36°57' W 025°09'0 0.0
2018-Apr-17 14:58N 36°57' W 025°09'0 0.0
2018-Apr-17 14:28N 36°57' W 025°09'0 0.0
2018-Apr-17 13:58N 36°57' W 025°09'0 0.0
2018-Apr-17 13:28N 36°57' W 025°09'0 0.0
2018-Apr-17 12:58N 36°57' W 025°09'0 0.0
2018-Apr-17 12:28N 36°57' W 025°09'0 0.0
2018-Apr-17 11:55N 36°57' W 025°09'0 0.0
2018-Apr-17 11:28N 36°57' W 025°09'0 0.0
2018-Apr-17 10:58N 36°57' W 025°09'0 0.0
2018-Apr-17 10:28N 36°57' W 025°09'0 0.0
2018-Apr-17 09:58N 36°57' W 025°09'0 0.0
2018-Apr-17 09:28N 36°57' W 025°09'0 0.0
2018-Apr-17 08:58N 36°57' W 025°09'0 0.0
2018-Apr-17 08:28N 36°57' W 025°09'0 0.0
2018-Apr-17 07:58N 36°57' W 025°09'0 0.0
2018-Apr-17 07:28N 36°57' W 025°09'0 0.0
2018-Apr-17 06:58N 36°57' W 025°09'0 0.0
2018-Apr-17 06:28N 36°57' W 025°09'0 0.0
2018-Apr-17 05:58N 36°57' W 025°09'0 0.0
2018-Apr-17 05:28N 36°57' W 025°09'0 0.0
2018-Apr-17 04:58N 36°57' W 025°09'0 0.0
2018-Apr-17 04:28N 36°57' W 025°09'0 0.0
2018-Apr-17 03:58N 36°57' W 025°09'0 0.0
2018-Apr-17 03:28N 36°57' W 025°09'0 0.0
2018-Apr-17 02:58N 36°57' W 025°09'0 0.0
2018-Apr-17 02:28N 36°57' W 025°09'0 0.0
2018-Apr-17 01:58N 36°57' W 025°09'0 0.0
2018-Apr-17 01:28N 36°57' W 025°09'0 0.0
2018-Apr-17 00:58N 36°57' W 025°09'0 0.0
2018-Apr-17 00:28N 36°57' W 025°09'0 0.0
2018-Apr-16 23:58N 36°57' W 025°09'0 0.0
2018-Apr-16 23:28N 36°57' W 025°09'0 0.0
2018-Apr-16 22:58N 36°57' W 025°09'0 0.0
2018-Apr-16 22:28N 36°57' W 025°09'0 0.0
2018-Apr-16 21:58N 36°57' W 025°09'0 0.0
2018-Apr-16 21:25N 36°57' W 025°09'0 0.0
2018-Apr-16 20:58N 36°57' W 025°09'0 0.0
2018-Apr-16 20:28N 36°57' W 025°09'0 0.0
2018-Apr-16 19:58N 36°57' W 025°09'0 0.0
2018-Apr-16 19:28N 36°57' W 025°09'0 0.0
2018-Apr-16 18:58N 36°57' W 025°09'0 0.0
2018-Apr-16 18:28N 36°57' W 025°09'  
2018-Apr-13 20:34N 36°57' W 025°09'0 0.0
2018-Apr-13 20:29N 36°57' W 025°09'0 0.0
2018-Apr-13 19:59N 36°57' W 025°09'0 0.0
2018-Apr-13 19:28N 36°57' W 025°09'0 0.0
2018-Apr-13 18:58N 36°57' W 025°09'0 0.0
2018-Apr-13 18:29N 36°57' W 025°09'0 0.3
2018-Apr-13 17:58N 36°57' W 025°09'2 3.5
2018-Apr-13 17:30N 36°56' W 025°11'3 5.9
2018-Apr-13 16:59N 36°58' W 025°14'3 6.0
2018-Apr-13 16:30N 36°59' W 025°18'3 6.3
2018-Apr-13 16:00N 37°01' W 025°21'3 6.3
2018-Apr-13 15:30N 37°02' W 025°25'3 6.3
2018-Apr-13 14:59N 37°04' W 025°28'3 6.3
2018-Apr-13 14:29N 37°05' W 025°32'3 6.5
2018-Apr-13 13:59N 37°07' W 025°35'3 6.3
2018-Apr-13 13:28N 37°08' W 025°39'109 6.3
2018-Apr-12 20:11N 38°00' W 027°40'4 7.9
2018-Apr-12 19:42N 38°02' W 027°44'2 7.8
2018-Apr-12 19:29N 38°03' W 027°46'4 7.7
2018-Apr-12 19:00N 38°04' W 027°50'4 7.8
2018-Apr-12 18:30N 38°06' W 027°54'4 7.6
2018-Apr-12 17:58N 38°08' W 027°59'3 7.2
2018-Apr-12 17:30N 38°10' W 028°03'4 6.8
2018-Apr-12 16:59N 38°12' W 028°06'3 6.6
2018-Apr-12 16:30N 38°13' W 028°10'3 5.2
2018-Apr-12 16:00N 38°15' W 028°12'3 5.6
2018-Apr-12 15:31N 38°17' W 028°15'3 5.1
2018-Apr-12 14:59N 38°18' W 028°18'2 5.1
2018-Apr-12 14:31N 38°20' W 028°20'3 5.4
2018-Apr-12 14:00N 38°21' W 028°23'3 5.5
2018-Apr-12 13:30N 38°23' W 028°26'3 5.5
2018-Apr-12 13:01N 38°24' W 028°29'3 5.7
2018-Apr-12 12:30N 38°27' W 028°31'3 5.8
2018-Apr-12 11:59N 38°29' W 028°33'2 4.1
2018-Apr-12 11:24N 38°31' W 028°35'1 2.3
2018-Apr-12 10:58N 38°32' W 028°36'1 1.0
2018-Apr-12 09:41N 38°32' W 028°38'0 0.0
2018-Apr-12 09:14N 38°32' W 028°38'0 0.0
2018-Apr-12 07:44N 38°32' W 028°38'0 0.0
2018-Apr-12 07:17N 38°32' W 028°38'0 0.0
2018-Apr-12 06:35N 38°32' W 028°38'0 0.0
2018-Apr-12 06:20N 38°32' W 028°38'0 0.0
2018-Apr-12 05:47N 38°32' W 028°38'0 0.0
2018-Apr-12 03:14N 38°32' W 028°38'0 0.0
2018-Apr-11 21:05N 38°32' W 028°38'0 0.0
2018-Apr-11 20:41N 38°32' W 028°38'0 0.0
2018-Apr-11 20:02N 38°32' W 028°38'0 0.0
2018-Apr-11 19:44N 38°32' W 028°38'  
Track history (hours):
 
Tides and Currents Weather Stations Pressure Air Temp Water Temp Dewpoint Dewpoint Depression Visibility Wind Speed Wind Dir Waves Ship Positions

Sy Capt. Cook

Last reported at 2018-Apr-21 18:27 UTC. Time now 2018-May-22 17:33 UTC.
Position N 36°57' W 024°06'.
Warning: this ship's position is 30 days out of date.

Length 13 m.

Type: Sailing vessel. MMSI: 211508500.

Date/timePositionNaut miles runAvg speedWind from/ knotsBaromVisibWave heightAir tempDewpointWater temp
2018-Apr-21 18:27N 36°57' W 024°06'4 7.5
2018-Apr-21 17:58N 36°57' W 024°11'3 7.3
2018-Apr-21 17:30N 36°57' W 024°15'4 7.2
2018-Apr-21 16:59N 36°56' W 024°19'3 7.2
2018-Apr-21 16:30N 36°56' W 024°24'4 7.1
2018-Apr-21 16:00N 36°56' W 024°28'4 7.2
2018-Apr-21 15:30N 36°56' W 024°33'4 7.1
2018-Apr-21 15:00N 36°56' W 024°37'4 7.1
2018-Apr-21 14:30N 36°56' W 024°42'4 7.1
2018-Apr-21 14:00N 36°56' W 024°46'3 7.1
2018-Apr-21 13:30N 36°55' W 024°50'3 6.7
2018-Apr-21 13:00N 36°55' W 024°55'3 5.5
2018-Apr-21 12:30N 36°55' W 024°58'2 4.9
2018-Apr-21 12:00N 36°55' W 025°01'3 5.5
2018-Apr-21 11:30N 36°55' W 025°05'3 5.2
2018-Apr-21 11:00N 36°56' W 025°08'1 1.9
2018-Apr-21 10:29N 36°57' W 025°09'0 0.3
2018-Apr-21 09:59N 36°57' W 025°09'0 0.0
2018-Apr-21 09:29N 36°57' W 025°09'0 0.0
2018-Apr-21 08:58N 36°57' W 025°09'0 0.0
2018-Apr-21 08:29N 36°57' W 025°09'0 0.0
2018-Apr-21 07:59N 36°57' W 025°09'0 0.0
2018-Apr-21 07:28N 36°57' W 025°09'0 0.0
2018-Apr-21 06:59N 36°57' W 025°09'0 0.0
2018-Apr-21 06:29N 36°57' W 025°09'0 0.0
2018-Apr-21 05:59N 36°57' W 025°09'0 0.0
2018-Apr-21 05:29N 36°57' W 025°09'0 0.0
2018-Apr-21 04:59N 36°57' W 025°09'0 0.0
2018-Apr-21 04:28N 36°57' W 025°09'0 0.0
2018-Apr-21 03:59N 36°57' W 025°09'0 0.0
2018-Apr-21 03:29N 36°57' W 025°09'0 0.0
2018-Apr-21 02:59N 36°57' W 025°09'0 0.0
2018-Apr-21 02:29N 36°57' W 025°09'0 0.0
2018-Apr-21 01:59N 36°57' W 025°09'0 0.0
2018-Apr-21 01:29N 36°57' W 025°09'0 0.0
2018-Apr-21 00:59N 36°57' W 025°09'0 0.0
2018-Apr-21 00:29N 36°57' W 025°09'0 0.0
2018-Apr-20 23:59N 36°57' W 025°09'0 0.0
2018-Apr-20 23:29N 36°57' W 025°09'0 0.0
2018-Apr-20 22:58N 36°57' W 025°09'0 0.0
2018-Apr-20 22:29N 36°57' W 025°09'0 0.0
2018-Apr-20 21:59N 36°57' W 025°09'0 0.0
2018-Apr-20 21:26N 36°57' W 025°09'0 0.0
2018-Apr-20 20:59N 36°57' W 025°09'0 0.0
2018-Apr-20 20:29N 36°57' W 025°09'0 0.0
2018-Apr-20 19:59N 36°57' W 025°09'0 0.0
2018-Apr-20 19:29N 36°57' W 025°09'0 0.0
2018-Apr-20 18:59N 36°57' W 025°09'0 0.0
2018-Apr-20 18:29N 36°57' W 025°09'0 0.0
2018-Apr-20 17:59N 36°57' W 025°09'0 0.0
2018-Apr-20 17:29N 36°57' W 025°09'0 0.0
2018-Apr-20 16:59N 36°57' W 025°09'0 0.0
2018-Apr-20 16:29N 36°57' W 025°09'0 0.0
2018-Apr-20 15:59N 36°57' W 025°09'0 0.0
2018-Apr-20 15:29N 36°57' W 025°09'0 0.0
2018-Apr-20 14:59N 36°57' W 025°09'0 0.0
2018-Apr-20 14:29N 36°57' W 025°09'0 0.0
2018-Apr-20 13:59N 36°57' W 025°09'0 0.0
2018-Apr-20 13:29N 36°57' W 025°09'0 0.0
2018-Apr-20 12:59N 36°57' W 025°09'0 0.0
2018-Apr-20 12:29N 36°57' W 025°09'0 0.0
2018-Apr-20 11:59N 36°57' W 025°09'0 0.0
2018-Apr-20 11:29N 36°57' W 025°09'0 0.0
2018-Apr-20 10:59N 36°57' W 025°09'0 0.0
2018-Apr-20 10:29N 36°57' W 025°09'0 0.0
2018-Apr-20 09:59N 36°57' W 025°09'0 0.0
2018-Apr-20 09:29N 36°57' W 025°09'0 0.0
2018-Apr-20 08:59N 36°57' W 025°09'0 0.0
2018-Apr-20 08:29N 36°57' W 025°09'0 0.0
2018-Apr-20 07:59N 36°57' W 025°09'0 0.0
2018-Apr-20 07:29N 36°57' W 025°09'0 0.0
2018-Apr-20 06:59N 36°57' W 025°09'0 0.0
2018-Apr-20 06:29N 36°57' W 025°09'0 0.0
2018-Apr-20 05:59N 36°57' W 025°09'0 0.0
2018-Apr-20 05:29N 36°57' W 025°09'0 0.0
2018-Apr-20 04:59N 36°57' W 025°09'0 0.0
2018-Apr-20 04:29N 36°57' W 025°09'0 0.0
2018-Apr-20 03:59N 36°57' W 025°09'0 0.0
2018-Apr-20 03:29N 36°57' W 025°09'0 0.0
2018-Apr-20 02:59N 36°57' W 025°09'0 0.0
2018-Apr-20 02:29N 36°57' W 025°09'0 0.0
2018-Apr-20 01:59N 36°57' W 025°09'0 0.0
2018-Apr-20 01:29N 36°57' W 025°09'0 0.0
2018-Apr-20 00:59N 36°57' W 025°09'0 0.0
2018-Apr-20 00:29N 36°57' W 025°09'0 0.0
2018-Apr-19 23:59N 36°57' W 025°09'0 0.0
2018-Apr-19 23:29N 36°57' W 025°09'0 0.0
2018-Apr-19 22:59N 36°57' W 025°09'0 0.0
2018-Apr-19 22:29N 36°57' W 025°09'0 0.0
2018-Apr-19 21:59N 36°57' W 025°09'0 0.0
2018-Apr-19 21:29N 36°57' W 025°09'0 0.0
2018-Apr-19 20:59N 36°57' W 025°09'0 0.0
2018-Apr-19 20:29N 36°57' W 025°09'0 0.0
2018-Apr-19 19:59N 36°57' W 025°09'0 0.0
2018-Apr-19 19:29N 36°57' W 025°09'0 0.0
2018-Apr-19 18:59N 36°57' W 025°09'0 0.0
2018-Apr-19 18:29N 36°57' W 025°09'0 0.0
2018-Apr-19 17:59N 36°57' W 025°09'0 0.0
2018-Apr-19 17:29N 36°57' W 025°09'0 0.0
2018-Apr-19 16:59N 36°57' W 025°09'0 0.0
2018-Apr-19 16:29N 36°57' W 025°09'0 0.0
2018-Apr-19 15:59N 36°57' W 025°09'0 0.0
2018-Apr-19 15:29N 36°57' W 025°09'0 0.0
2018-Apr-19 14:59N 36°57' W 025°09'0 0.0
2018-Apr-19 14:29N 36°57' W 025°09'0 0.0
2018-Apr-19 13:59N 36°57' W 025°09'0 0.0
2018-Apr-19 13:29N 36°57' W 025°09'0 0.0
2018-Apr-19 12:59N 36°57' W 025°09'0 0.0
2018-Apr-19 12:29N 36°57' W 025°09'0 0.0
2018-Apr-19 11:59N 36°57' W 025°09'0 0.0
2018-Apr-19 11:29N 36°57' W 025°09'0 0.0
2018-Apr-19 10:59N 36°57' W 025°09'0 0.0
2018-Apr-19 10:26N 36°57' W 025°09'0 0.0
2018-Apr-19 09:59N 36°57' W 025°09'0 0.0
2018-Apr-19 09:29N 36°57' W 025°09'0 0.0
2018-Apr-19 08:59N 36°57' W 025°09'0 0.0
2018-Apr-19 08:29N 36°57' W 025°09'0 0.0
2018-Apr-19 07:59N 36°57' W 025°09'0 0.0
2018-Apr-19 07:29N 36°57' W 025°09'0 0.0
2018-Apr-19 06:59N 36°57' W 025°09'0 0.0
2018-Apr-19 06:29N 36°57' W 025°09'0 0.0
2018-Apr-19 05:59N 36°57' W 025°09'0 0.0
2018-Apr-19 05:29N 36°57' W 025°09'0 0.0
2018-Apr-19 04:59N 36°57' W 025°09'0 0.0
2018-Apr-19 04:29N 36°57' W 025°09'0 0.0
2018-Apr-19 03:59N 36°57' W 025°09'0 0.0
2018-Apr-19 03:29N 36°57' W 025°09'0 0.0
2018-Apr-19 02:59N 36°57' W 025°09'0 0.0
2018-Apr-19 02:29N 36°57' W 025°09'0 0.0
2018-Apr-19 01:59N 36°57' W 025°09'0 0.0
2018-Apr-19 01:29N 36°57' W 025°09'0 0.0
2018-Apr-19 00:59N 36°57' W 025°09'0 0.0
2018-Apr-19 00:29N 36°57' W 025°09'0 0.0
2018-Apr-18 23:59N 36°57' W 025°09'0 0.0
2018-Apr-18 23:29N 36°57' W 025°09'0 0.0
2018-Apr-18 22:59N 36°57' W 025°09'0 0.0
2018-Apr-18 22:29N 36°57' W 025°09'0 0.0
2018-Apr-18 21:59N 36°57' W 025°09'0 0.0
2018-Apr-18 21:29N 36°57' W 025°09'0 0.0
2018-Apr-18 21:00N 36°57' W 025°09'0 0.0
2018-Apr-18 20:28N 36°57' W 025°09'0 0.0
2018-Apr-18 20:00N 36°57' W 025°09'0 0.0
2018-Apr-18 19:28N 36°57' W 025°09'0 0.0
2018-Apr-18 18:57N 36°57' W 025°09'0 0.0
2018-Apr-18 18:28N 36°57' W 025°09'0 0.0
2018-Apr-18 17:58N 36°57' W 025°09'0 0.0
2018-Apr-18 17:31N 36°57' W 025°09'0 0.0
2018-Apr-18 16:58N 36°57' W 025°09'0 0.0
2018-Apr-18 16:28N 36°57' W 025°09'0 0.0
2018-Apr-18 15:58N 36°57' W 025°09'0 0.0
2018-Apr-18 15:31N 36°57' W 025°09'0 0.0
2018-Apr-18 15:01N 36°57' W 025°09'0 0.0
2018-Apr-18 14:28N 36°57' W 025°09'0 0.0
2018-Apr-18 13:58N 36°57' W 025°09'0 0.0
2018-Apr-18 13:28N 36°57' W 025°09'0 0.0
2018-Apr-18 12:58N 36°57' W 025°09'0 0.0
2018-Apr-18 12:28N 36°57' W 025°09'0 0.0
2018-Apr-18 11:58N 36°57' W 025°09'0 0.0
2018-Apr-18 11:28N 36°57' W 025°09'0 0.0
2018-Apr-18 10:58N 36°57' W 025°09'0 0.0
2018-Apr-18 10:28N 36°57' W 025°09'0 0.0
2018-Apr-18 09:58N 36°57' W 025°09'0 0.0
2018-Apr-18 09:28N 36°57' W 025°09'0 0.0
2018-Apr-18 08:58N 36°57' W 025°09'0 0.0
2018-Apr-18 08:28N 36°57' W 025°09'0 0.0
2018-Apr-18 07:58N 36°57' W 025°09'0 0.0
2018-Apr-18 07:28N 36°57' W 025°09'0 0.0
2018-Apr-18 06:58N 36°57' W 025°09'0 0.0
2018-Apr-18 06:28N 36°57' W 025°09'0 0.0
2018-Apr-18 05:58N 36°57' W 025°09'0 0.0
2018-Apr-18 05:28N 36°57' W 025°09'0 0.0
2018-Apr-18 04:58N 36°57' W 025°09'0 0.0
2018-Apr-18 04:28N 36°57' W 025°09'0 0.0
2018-Apr-18 03:58N 36°57' W 025°09'0 0.0
2018-Apr-18 03:28N 36°57' W 025°09'0 0.0
2018-Apr-18 02:58N 36°57' W 025°09'0 0.0
2018-Apr-18 02:28N 36°57' W 025°09'0 0.0
2018-Apr-18 01:58N 36°57' W 025°09'0 0.0
2018-Apr-18 01:28N 36°57' W 025°09'0 0.0
2018-Apr-18 00:58N 36°57' W 025°09'0 0.0
2018-Apr-18 00:28N 36°57' W 025°09'0 0.0
2018-Apr-17 23:58N 36°57' W 025°09'0 0.0
2018-Apr-17 23:28N 36°57' W 025°09'0 0.0
2018-Apr-17 22:58N 36°57' W 025°09'0 0.0
2018-Apr-17 22:28N 36°57' W 025°09'0 0.0
2018-Apr-17 21:58N 36°57' W 025°09'0 0.0
2018-Apr-17 21:28N 36°57' W 025°09'0 0.0
2018-Apr-17 20:58N 36°57' W 025°09'0 0.0
2018-Apr-17 20:28N 36°57' W 025°09'0 0.0
2018-Apr-17 19:58N 36°57' W 025°09'0 0.0
2018-Apr-17 19:28N 36°57' W 025°09'0 0.0
2018-Apr-17 18:58N 36°57' W 025°09'0 0.0
2018-Apr-17 18:28N 36°57' W 025°09'0 0.0
2018-Apr-17 17:58N 36°57' W 025°09'0 0.0
2018-Apr-17 17:28N 36°57' W 025°09'0 0.0
2018-Apr-17 16:58N 36°57' W 025°09'0 0.0
2018-Apr-17 16:28N 36°57' W 025°09'0 0.0
2018-Apr-17 15:58N 36°57' W 025°09'0 0.0
2018-Apr-17 15:28N 36°57' W 025°09'0 0.0
2018-Apr-17 14:58N 36°57' W 025°09'0 0.0
2018-Apr-17 14:28N 36°57' W 025°09'0 0.0
2018-Apr-17 13:58N 36°57' W 025°09'0 0.0
2018-Apr-17 13:28N 36°57' W 025°09'0 0.0
2018-Apr-17 12:58N 36°57' W 025°09'0 0.0
2018-Apr-17 12:28N 36°57' W 025°09'0 0.0
2018-Apr-17 11:55N 36°57' W 025°09'0 0.0
2018-Apr-17 11:28N 36°57' W 025°09'0 0.0
2018-Apr-17 10:58N 36°57' W 025°09'0 0.0
2018-Apr-17 10:28N 36°57' W 025°09'0 0.0
2018-Apr-17 09:58N 36°57' W 025°09'0 0.0
2018-Apr-17 09:28N 36°57' W 025°09'0 0.0
2018-Apr-17 08:58N 36°57' W 025°09'0 0.0
2018-Apr-17 08:28N 36°57' W 025°09'0 0.0
2018-Apr-17 07:58N 36°57' W 025°09'0 0.0
2018-Apr-17 07:28N 36°57' W 025°09'0 0.0
2018-Apr-17 06:58N 36°57' W 025°09'0 0.0
2018-Apr-17 06:28N 36°57' W 025°09'0 0.0
2018-Apr-17 05:58N 36°57' W 025°09'0 0.0
2018-Apr-17 05:28N 36°57' W 025°09'0 0.0
2018-Apr-17 04:58N 36°57' W 025°09'0 0.0
2018-Apr-17 04:28N 36°57' W 025°09'0 0.0
2018-Apr-17 03:58N 36°57' W 025°09'0 0.0
2018-Apr-17 03:28N 36°57' W 025°09'0 0.0
2018-Apr-17 02:58N 36°57' W 025°09'0 0.0
2018-Apr-17 02:28N 36°57' W 025°09'0 0.0
2018-Apr-17 01:58N 36°57' W 025°09'0 0.0
2018-Apr-17 01:28N 36°57' W 025°09'0 0.0
2018-Apr-17 00:58N 36°57' W 025°09'0 0.0
2018-Apr-17 00:28N 36°57' W 025°09'0 0.0
2018-Apr-16 23:58N 36°57' W 025°09'0 0.0
2018-Apr-16 23:28N 36°57' W 025°09'0 0.0
2018-Apr-16 22:58N 36°57' W 025°09'0 0.0
2018-Apr-16 22:28N 36°57' W 025°09'0 0.0
2018-Apr-16 21:58N 36°57' W 025°09'0 0.0
2018-Apr-16 21:25N 36°57' W 025°09'0 0.0
2018-Apr-16 20:58N 36°57' W 025°09'0 0.0
2018-Apr-16 20:28N 36°57' W 025°09'0 0.0
2018-Apr-16 19:58N 36°57' W 025°09'0 0.0
2018-Apr-16 19:28N 36°57' W 025°09'0 0.0
2018-Apr-16 18:58N 36°57' W 025°09'0 0.0
2018-Apr-16 18:28N 36°57' W 025°09'  
2018-Apr-13 20:34N 36°57' W 025°09'0 0.0
2018-Apr-13 20:29N 36°57' W 025°09'0 0.0
2018-Apr-13 19:59N 36°57' W 025°09'0 0.0
2018-Apr-13 19:28N 36°57' W 025°09'0 0.0
2018-Apr-13 18:58N 36°57' W 025°09'0 0.0
2018-Apr-13 18:29N 36°57' W 025°09'0 0.3
2018-Apr-13 17:58N 36°57' W 025°09'2 3.5
2018-Apr-13 17:30N 36°56' W 025°11'3 5.9
2018-Apr-13 16:59N 36°58' W 025°14'3 6.0
2018-Apr-13 16:30N 36°59' W 025°18'3 6.3
2018-Apr-13 16:00N 37°01' W 025°21'3 6.3
2018-Apr-13 15:30N 37°02' W 025°25'3 6.3
2018-Apr-13 14:59N 37°04' W 025°28'3 6.3
2018-Apr-13 14:29N 37°05' W 025°32'3 6.5
2018-Apr-13 13:59N 37°07' W 025°35'3 6.3
2018-Apr-13 13:28N 37°08' W 025°39'109 6.3
2018-Apr-12 20:11N 38°00' W 027°40'4 7.9
2018-Apr-12 19:42N 38°02' W 027°44'2 7.8
2018-Apr-12 19:29N 38°03' W 027°46'4 7.7
2018-Apr-12 19:00N 38°04' W 027°50'4 7.8
2018-Apr-12 18:30N 38°06' W 027°54'4 7.6
2018-Apr-12 17:58N 38°08' W 027°59'3 7.2
2018-Apr-12 17:30N 38°10' W 028°03'4 6.8
2018-Apr-12 16:59N 38°12' W 028°06'3 6.6
2018-Apr-12 16:30N 38°13' W 028°10'3 5.2
2018-Apr-12 16:00N 38°15' W 028°12'3 5.6
2018-Apr-12 15:31N 38°17' W 028°15'3 5.1
2018-Apr-12 14:59N 38°18' W 028°18'2 5.1
2018-Apr-12 14:31N 38°20' W 028°20'3 5.4
2018-Apr-12 14:00N 38°21' W 028°23'3 5.5
2018-Apr-12 13:30N 38°23' W 028°26'3 5.5
2018-Apr-12 13:01N 38°24' W 028°29'3 5.7
2018-Apr-12 12:30N 38°27' W 028°31'3 5.8
2018-Apr-12 11:59N 38°29' W 028°33'2 4.1
2018-Apr-12 11:24N 38°31' W 028°35'1 2.3
2018-Apr-12 10:58N 38°32' W 028°36'1 1.0
2018-Apr-12 09:41N 38°32' W 028°38'0 0.0
2018-Apr-12 09:14N 38°32' W 028°38'0 0.0
2018-Apr-12 07:44N 38°32' W 028°38'0 0.0
2018-Apr-12 07:17N 38°32' W 028°38'0 0.0
2018-Apr-12 06:35N 38°32' W 028°38'0 0.0
2018-Apr-12 06:20N 38°32' W 028°38'0 0.0
2018-Apr-12 05:47N 38°32' W 028°38'0 0.0
2018-Apr-12 03:14N 38°32' W 028°38'0 0.0
2018-Apr-11 21:05N 38°32' W 028°38'0 0.0
2018-Apr-11 20:41N 38°32' W 028°38'0 0.0
2018-Apr-11 20:02N 38°32' W 028°38'0 0.0
2018-Apr-11 19:44N 38°32' W 028°38'  

Dump ship's entire track history